< < Back
Terminal Aerodrome Forecast


Current Version              Previous Versions:   1  2  3  4  5  6  7  8  9  

Terminal Aerodrome Forecast

390
FTUS42 KGSP 230500
TAFAVL
TAF
KAVL 230529Z 2306/2406 32006KT P6SM FEW050
     FM231000 33010KT P6SM SKC
     FM231400 33013G22KT P6SM SKC
     FM240000 33009KT P6SM SKC
     FM240400 33005KT P6SM SKC=

Latest METAR

114
SAUS70 KWBC 240300 RRL
MTRAVL
METAR KAVL 240254Z AUTO 01004KT 10SM CLR 13/M03 A3002 RMK AO2 SLP152
T01331028 51018


USA.gov is the U.S. government's official web portal to all federal, state and local government web resources and services.